3RC weather

Roscommon Conservation Airport
Roscommon, Michigan, United States

Public forecast

Using degrees Fahrenheit for public forecast. Weather courtesy of forecast.io.

Closest aviation weather report (METAR) to Roscommon Conservation Airport

Closest report is Roscommon County - Blodgett Memorial Airport, 8.2 nm (15.3 km) SSW. Retrieved 2019/10/17 10:53 UTC (38 minutes ago):

KHTL 171053Z AUTO 34007G21KT 10SM SCT019 BKN024 OVC029 05/02 A2987 RMK AO2 SLP123 T00500022

Closest aviation forecast (TAF) to Roscommon Conservation Airport

Closest forecast is Cherry Capital Airport, 46.3 nm (85.7 km) WNW. Retrieved 2019/10/17 06:18 UTC (5 hours ago):

TAF KTVC 170615Z 1706/1806 33012G23KT P6SM VCSH OVC045 FM170800 33010G17KT P6SM -SHRA OVC035 FM171500 34010G19KT P6SM BKN035 FM180000 31005KT P6SM BKN035 FM180500 VRB03KT P6SM SCT035